sensor_id;sensor_type;location;lat;lon;timestamp;P1;durP1;ratioP1;P2;durP2;ratioP2
59872;SDS011;50750;51.636;4.948;2024-02-21T00:00:52;5.60;;;2.30;;
59872;SDS011;50750;51.636;4.948;2024-02-21T00:03:40;6.60;;;2.50;;
59872;SDS011;50750;51.636;4.948;2024-02-21T00:06:08;4.40;;;2.10;;
59872;SDS011;50750;51.636;4.948;2024-02-21T00:08:35;5.70;;;2.10;;
59872;SDS011;50750;51.636;4.948;2024-02-21T00:11:03;4.00;;;2.10;;
59872;SDS011;50750;51.636;4.948;2024-02-21T00:13:31;4.10;;;1.90;;
59872;SDS011;50750;51.636;4.948;2024-02-21T00:15:59;3.60;;;1.80;;
59872;SDS011;50750;51.636;4.948;2024-02-21T00:18:27;3.30;;;1.90;;
59872;SDS011;50750;51.636;4.948;2024-02-21T00:20:55;3.40;;;1.70;;
59872;SDS011;50750;51.636;4.948;2024-02-21T00:23:23;4.60;;;2.10;;
59872;SDS011;50750;51.636;4.948;2024-02-21T00:25:50;4.70;;;2.20;;
59872;SDS011;50750;51.636;4.948;2024-02-21T00:28:18;4.60;;;2.00;;
59872;SDS011;50750;51.636;4.948;2024-02-21T00:30:46;5.00;;;1.90;;
59872;SDS011;50750;51.636;4.948;2024-02-21T00:33:16;4.30;;;1.90;;
59872;SDS011;50750;51.636;4.948;2024-02-21T00:35:44;3.50;;;1.60;;
59872;SDS011;50750;51.636;4.948;2024-02-21T00:38:12;4.00;;;1.90;;
59872;SDS011;50750;51.636;4.948;2024-02-21T00:40:39;3.70;;;1.60;;
59872;SDS011;50750;51.636;4.948;2024-02-21T00:43:07;3.30;;;1.60;;
59872;SDS011;50750;51.636;4.948;2024-02-21T00:45:35;3.50;;;1.90;;
59872;SDS011;50750;51.636;4.948;2024-02-21T00:48:04;4.70;;;1.80;;
59872;SDS011;50750;51.636;4.948;2024-02-21T00:50:32;3.60;;;2.00;;
59872;SDS011;50750;51.636;4.948;2024-02-21T00:53:00;3.50;;;1.90;;
59872;SDS011;50750;51.636;4.948;2024-02-21T00:55:27;3.50;;;1.80;;
59872;SDS011;50750;51.636;4.948;2024-02-21T00:57:55;3.80;;;1.90;;
59872;SDS011;50750;51.636;4.948;2024-02-21T01:00:23;3.20;;;1.60;;
59872;SDS011;50750;51.636;4.948;2024-02-21T01:02:50;4.00;;;1.70;;
59872;SDS011;50750;51.636;4.948;2024-02-21T01:05:18;4.80;;;1.90;;
59872;SDS011;50750;51.636;4.948;2024-02-21T01:07:46;4.30;;;1.70;;
59872;SDS011;50750;51.636;4.948;2024-02-21T01:10:14;3.50;;;1.40;;
59872;SDS011;50750;51.636;4.948;2024-02-21T01:12:43;3.60;;;1.60;;
59872;SDS011;50750;51.636;4.948;2024-02-21T01:15:10;3.30;;;1.70;;
59872;SDS011;50750;51.636;4.948;2024-02-21T01:17:38;4.10;;;1.70;;
59872;SDS011;50750;51.636;4.948;2024-02-21T01:20:08;4.70;;;1.90;;
59872;SDS011;50750;51.636;4.948;2024-02-21T01:25:04;4.00;;;1.90;;
59872;SDS011;50750;51.636;4.948;2024-02-21T01:30:00;3.80;;;1.80;;
59872;SDS011;50750;51.636;4.948;2024-02-21T01:32:28;3.90;;;1.70;;
59872;SDS011;50750;51.636;4.948;2024-02-21T01:34:55;3.60;;;1.90;;
59872;SDS011;50750;51.636;4.948;2024-02-21T01:37:23;4.90;;;2.00;;
59872;SDS011;50750;51.636;4.948;2024-02-21T01:39:51;3.60;;;1.80;;
59872;SDS011;50750;51.636;4.948;2024-02-21T01:42:19;4.00;;;1.60;;
59872;SDS011;50750;51.636;4.948;2024-02-21T01:44:46;3.80;;;1.80;;
59872;SDS011;50750;51.636;4.948;2024-02-21T01:47:14;3.70;;;1.70;;
59872;SDS011;50750;51.636;4.948;2024-02-21T01:49:42;3.70;;;1.90;;
59872;SDS011;50750;51.636;4.948;2024-02-21T01:52:11;3.60;;;1.90;;
59872;SDS011;50750;51.636;4.948;2024-02-21T01:54:41;6.00;;;1.90;;
59872;SDS011;50750;51.636;4.948;2024-02-21T01:57:10;3.60;;;1.70;;
59872;SDS011;50750;51.636;4.948;2024-02-21T01:59:38;4.00;;;2.00;;
59872;SDS011;50750;51.636;4.948;2024-02-21T02:02:06;3.00;;;2.00;;
59872;SDS011;50750;51.636;4.948;2024-02-21T02:04:34;4.10;;;1.90;;
59872;SDS011;50750;51.636;4.948;2024-02-21T02:07:04;4.40;;;1.70;;
59872;SDS011;50750;51.636;4.948;2024-02-21T02:12:01;3.40;;;1.70;;
59872;SDS011;50750;51.636;4.948;2024-02-21T02:14:29;4.60;;;1.90;;
59872;SDS011;50750;51.636;4.948;2024-02-21T02:16:57;3.60;;;1.80;;
59872;SDS011;50750;51.636;4.948;2024-02-21T02:19:24;4.60;;;1.60;;
59872;SDS011;50750;51.636;4.948;2024-02-21T02:21:53;4.40;;;1.90;;
59872;SDS011;50750;51.636;4.948;2024-02-21T02:24:25;4.10;;;2.20;;
59872;SDS011;50750;51.636;4.948;2024-02-21T02:26:55;4.40;;;1.80;;
59872;SDS011;50750;51.636;4.948;2024-02-21T02:29:23;3.80;;;1.70;;
59872;SDS011;50750;51.636;4.948;2024-02-21T02:31:51;3.30;;;1.60;;
59872;SDS011;50750;51.636;4.948;2024-02-21T02:34:19;4.10;;;1.50;;
59872;SDS011;50750;51.636;4.948;2024-02-21T02:36:46;3.20;;;1.70;;
59872;SDS011;50750;51.636;4.948;2024-02-21T02:39:15;3.70;;;1.90;;
59872;SDS011;50750;51.636;4.948;2024-02-21T02:41:43;2.70;;;1.60;;
59872;SDS011;50750;51.636;4.948;2024-02-21T02:44:11;3.50;;;2.00;;
59872;SDS011;50750;51.636;4.948;2024-02-21T02:46:40;4.70;;;1.80;;
59872;SDS011;50750;51.636;4.948;2024-02-21T02:49:08;4.20;;;1.70;;
59872;SDS011;50750;51.636;4.948;2024-02-21T02:51:36;3.50;;;1.70;;
59872;SDS011;50750;51.636;4.948;2024-02-21T02:54:07;3.00;;;1.60;;
59872;SDS011;50750;51.636;4.948;2024-02-21T02:56:35;3.80;;;1.80;;
59872;SDS011;50750;51.636;4.948;2024-02-21T02:59:02;5.80;;;2.00;;
59872;SDS011;50750;51.636;4.948;2024-02-21T03:01:32;4.60;;;1.70;;
59872;SDS011;50750;51.636;4.948;2024-02-21T03:04:02;3.40;;;1.60;;
59872;SDS011;50750;51.636;4.948;2024-02-21T03:06:29;3.50;;;1.80;;
59872;SDS011;50750;51.636;4.948;2024-02-21T03:08:57;4.30;;;1.80;;
59872;SDS011;50750;51.636;4.948;2024-02-21T03:11:26;2.70;;;1.50;;
59872;SDS011;50750;51.636;4.948;2024-02-21T03:13:55;4.00;;;1.80;;
59872;SDS011;50750;51.636;4.948;2024-02-21T03:16:23;4.10;;;1.70;;
59872;SDS011;50750;51.636;4.948;2024-02-21T03:18:51;3.40;;;1.70;;
59872;SDS011;50750;51.636;4.948;2024-02-21T03:21:19;4.30;;;1.80;;
59872;SDS011;50750;51.636;4.948;2024-02-21T03:23:46;4.10;;;1.80;;
59872;SDS011;50750;51.636;4.948;2024-02-21T03:26:14;4.90;;;1.90;;
59872;SDS011;50750;51.636;4.948;2024-02-21T03:28:43;3.70;;;1.80;;
59872;SDS011;50750;51.636;4.948;2024-02-21T03:31:12;3.40;;;1.60;;
59872;SDS011;50750;51.636;4.948;2024-02-21T03:33:41;4.30;;;1.70;;
59872;SDS011;50750;51.636;4.948;2024-02-21T03:36:13;3.00;;;1.50;;
59872;SDS011;50750;51.636;4.948;2024-02-21T03:38:41;4.60;;;1.60;;
59872;SDS011;50750;51.636;4.948;2024-02-21T03:41:09;3.50;;;1.60;;
59872;SDS011;50750;51.636;4.948;2024-02-21T03:43:37;4.30;;;1.60;;
59872;SDS011;50750;51.636;4.948;2024-02-21T03:46:05;2.70;;;1.60;;
59872;SDS011;50750;51.636;4.948;2024-02-21T03:48:33;3.10;;;1.70;;
59872;SDS011;50750;51.636;4.948;2024-02-21T03:51:01;4.40;;;1.80;;
59872;SDS011;50750;51.636;4.948;2024-02-21T03:53:28;4.10;;;1.70;;
59872;SDS011;50750;51.636;4.948;2024-02-21T03:55:56;4.20;;;1.80;;
59872;SDS011;50750;51.636;4.948;2024-02-21T03:58:28;4.30;;;1.80;;
59872;SDS011;50750;51.636;4.948;2024-02-21T04:00:56;3.50;;;1.70;;
59872;SDS011;50750;51.636;4.948;2024-02-21T04:05:53;4.00;;;1.90;;
59872;SDS011;50750;51.636;4.948;2024-02-21T04:08:21;3.50;;;1.70;;
59872;SDS011;50750;51.636;4.948;2024-02-21T04:10:49;3.10;;;1.60;;
59872;SDS011;50750;51.636;4.948;2024-02-21T04:13:16;5.70;;;2.10;;
59872;SDS011;50750;51.636;4.948;2024-02-21T04:15:44;5.80;;;2.20;;
59872;SDS011;50750;51.636;4.948;2024-02-21T04:18:12;4.10;;;2.10;;
59872;SDS011;50750;51.636;4.948;2024-02-21T04:20:41;3.90;;;1.90;;
59872;SDS011;50750;51.636;4.948;2024-02-21T04:23:08;4.00;;;1.90;;
59872;SDS011;50750;51.636;4.948;2024-02-21T04:25:36;6.70;;;2.00;;
59872;SDS011;50750;51.636;4.948;2024-02-21T04:28:05;4.70;;;2.20;;
59872;SDS011;50750;51.636;4.948;2024-02-21T04:30:32;5.20;;;2.50;;
59872;SDS011;50750;51.636;4.948;2024-02-21T04:33:00;5.40;;;2.60;;
59872;SDS011;50750;51.636;4.948;2024-02-21T04:35:28;4.70;;;1.90;;
59872;SDS011;50750;51.636;4.948;2024-02-21T04:37:55;5.00;;;2.20;;
59872;SDS011;50750;51.636;4.948;2024-02-21T04:40:23;6.30;;;2.60;;
59872;SDS011;50750;51.636;4.948;2024-02-21T04:42:51;4.90;;;2.40;;
59872;SDS011;50750;51.636;4.948;2024-02-21T04:45:18;4.50;;;2.20;;
59872;SDS011;50750;51.636;4.948;2024-02-21T04:47:46;5.20;;;2.30;;
59872;SDS011;50750;51.636;4.948;2024-02-21T04:50:14;4.40;;;2.10;;
59872;SDS011;50750;51.636;4.948;2024-02-21T04:52:42;5.90;;;2.30;;
59872;SDS011;50750;51.636;4.948;2024-02-21T04:55:10;5.60;;;2.20;;
59872;SDS011;50750;51.636;4.948;2024-02-21T04:57:37;4.30;;;2.10;;
59872;SDS011;50750;51.636;4.948;2024-02-21T05:00:07;4.30;;;2.30;;
59872;SDS011;50750;51.636;4.948;2024-02-21T05:02:36;5.40;;;2.50;;
59872;SDS011;50750;51.636;4.948;2024-02-21T05:05:04;5.00;;;2.30;;
59872;SDS011;50750;51.636;4.948;2024-02-21T05:07:32;4.40;;;2.40;;
59872;SDS011;50750;51.636;4.948;2024-02-21T05:10:01;6.30;;;2.50;;
59872;SDS011;50750;51.636;4.948;2024-02-21T05:12:29;4.90;;;2.30;;
59872;SDS011;50750;51.636;4.948;2024-02-21T05:14:57;8.50;;;2.80;;
59872;SDS011;50750;51.636;4.948;2024-02-21T05:17:25;5.20;;;2.40;;
59872;SDS011;50750;51.636;4.948;2024-02-21T05:19:52;5.00;;;2.30;;
59872;SDS011;50750;51.636;4.948;2024-02-21T05:22:20;5.70;;;2.60;;
59872;SDS011;50750;51.636;4.948;2024-02-21T05:24:48;5.30;;;2.70;;
59872;SDS011;50750;51.636;4.948;2024-02-21T05:27:16;5.20;;;2.60;;
59872;SDS011;50750;51.636;4.948;2024-02-21T05:29:44;4.60;;;2.40;;
59872;SDS011;50750;51.636;4.948;2024-02-21T05:32:12;5.40;;;2.60;;
59872;SDS011;50750;51.636;4.948;2024-02-21T05:34:40;7.80;;;3.10;;
59872;SDS011;50750;51.636;4.948;2024-02-21T05:37:07;6.10;;;2.60;;
59872;SDS011;50750;51.636;4.948;2024-02-21T05:39:35;5.80;;;2.70;;
59872;SDS011;50750;51.636;4.948;2024-02-21T05:42:03;6.50;;;2.80;;
59872;SDS011;50750;51.636;4.948;2024-02-21T05:44:32;5.00;;;2.80;;
59872;SDS011;50750;51.636;4.948;2024-02-21T05:46:59;5.70;;;2.80;;
59872;SDS011;50750;51.636;4.948;2024-02-21T05:49:27;5.40;;;2.70;;
59872;SDS011;50750;51.636;4.948;2024-02-21T05:51:55;5.10;;;2.90;;
59872;SDS011;50750;51.636;4.948;2024-02-21T05:54:22;5.50;;;2.70;;
59872;SDS011;50750;51.636;4.948;2024-02-21T05:56:50;5.90;;;2.70;;
59872;SDS011;50750;51.636;4.948;2024-02-21T05:59:18;7.70;;;3.00;;
59872;SDS011;50750;51.636;4.948;2024-02-21T06:01:46;7.60;;;2.80;;
59872;SDS011;50750;51.636;4.948;2024-02-21T06:04:23;5.70;;;2.90;;
59872;SDS011;50750;51.636;4.948;2024-02-21T06:06:51;6.30;;;2.80;;
59872;SDS011;50750;51.636;4.948;2024-02-21T06:09:19;5.10;;;2.80;;
59872;SDS011;50750;51.636;4.948;2024-02-21T06:11:46;6.10;;;2.60;;
59872;SDS011;50750;51.636;4.948;2024-02-21T06:14:15;7.30;;;2.80;;
59872;SDS011;50750;51.636;4.948;2024-02-21T06:16:43;5.40;;;2.80;;
59872;SDS011;50750;51.636;4.948;2024-02-21T06:19:11;7.30;;;2.80;;
59872;SDS011;50750;51.636;4.948;2024-02-21T06:21:39;5.10;;;2.80;;
59872;SDS011;50750;51.636;4.948;2024-02-21T06:24:06;6.30;;;2.80;;
59872;SDS011;50750;51.636;4.948;2024-02-21T06:26:34;6.20;;;2.80;;
59872;SDS011;50750;51.636;4.948;2024-02-21T06:29:02;6.70;;;2.90;;
59872;SDS011;50750;51.636;4.948;2024-02-21T06:31:30;5.60;;;2.70;;
59872;SDS011;50750;51.636;4.948;2024-02-21T06:33:58;7.20;;;3.20;;
59872;SDS011;50750;51.636;4.948;2024-02-21T06:36:25;6.90;;;2.90;;
59872;SDS011;50750;51.636;4.948;2024-02-21T06:38:53;7.20;;;3.40;;
59872;SDS011;50750;51.636;4.948;2024-02-21T06:41:21;6.80;;;2.90;;
59872;SDS011;50750;51.636;4.948;2024-02-21T06:43:49;7.80;;;3.00;;
59872;SDS011;50750;51.636;4.948;2024-02-21T06:46:23;6.80;;;2.70;;
59872;SDS011;50750;51.636;4.948;2024-02-21T06:48:51;5.10;;;2.70;;
59872;SDS011;50750;51.636;4.948;2024-02-21T06:51:19;6.10;;;2.90;;
59872;SDS011;50750;51.636;4.948;2024-02-21T06:53:47;4.40;;;2.80;;
59872;SDS011;50750;51.636;4.948;2024-02-21T06:56:14;7.00;;;3.10;;
59872;SDS011;50750;51.636;4.948;2024-02-21T06:58:42;7.00;;;3.40;;
59872;SDS011;50750;51.636;4.948;2024-02-21T07:01:10;6.80;;;3.70;;
59872;SDS011;50750;51.636;4.948;2024-02-21T07:03:37;6.00;;;3.10;;
59872;SDS011;50750;51.636;4.948;2024-02-21T07:06:05;5.90;;;3.20;;
59872;SDS011;50750;51.636;4.948;2024-02-21T07:08:33;6.60;;;3.40;;
59872;SDS011;50750;51.636;4.948;2024-02-21T07:11:00;6.60;;;3.20;;
59872;SDS011;50750;51.636;4.948;2024-02-21T07:13:28;8.40;;;3.50;;
59872;SDS011;50750;51.636;4.948;2024-02-21T07:15:56;5.60;;;3.30;;
59872;SDS011;50750;51.636;4.948;2024-02-21T07:18:24;6.50;;;3.00;;
59872;SDS011;50750;51.636;4.948;2024-02-21T07:20:52;6.20;;;3.40;;
59872;SDS011;50750;51.636;4.948;2024-02-21T07:23:19;6.10;;;3.30;;
59872;SDS011;50750;51.636;4.948;2024-02-21T07:25:47;7.70;;;3.30;;
59872;SDS011;50750;51.636;4.948;2024-02-21T07:28:15;5.50;;;2.80;;
59872;SDS011;50750;51.636;4.948;2024-02-21T07:30:43;5.40;;;3.20;;
59872;SDS011;50750;51.636;4.948;2024-02-21T07:33:11;7.40;;;3.50;;
59872;SDS011;50750;51.636;4.948;2024-02-21T07:35:39;5.90;;;2.90;;
59872;SDS011;50750;51.636;4.948;2024-02-21T07:38:08;5.40;;;3.10;;
59872;SDS011;50750;51.636;4.948;2024-02-21T07:40:38;7.20;;;2.90;;
59872;SDS011;50750;51.636;4.948;2024-02-21T07:43:06;5.30;;;2.60;;
59872;SDS011;50750;51.636;4.948;2024-02-21T07:45:34;5.00;;;2.70;;
59872;SDS011;50750;51.636;4.948;2024-02-21T07:48:01;6.90;;;3.10;;
59872;SDS011;50750;51.636;4.948;2024-02-21T07:50:30;6.30;;;3.20;;
59872;SDS011;50750;51.636;4.948;2024-02-21T07:52:57;5.50;;;2.90;;
59872;SDS011;50750;51.636;4.948;2024-02-21T07:55:25;6.00;;;3.00;;
59872;SDS011;50750;51.636;4.948;2024-02-21T07:57:53;5.80;;;3.30;;
59872;SDS011;50750;51.636;4.948;2024-02-21T08:00:21;5.20;;;2.70;;
59872;SDS011;50750;51.636;4.948;2024-02-21T08:02:49;5.00;;;2.80;;
59872;SDS011;50750;51.636;4.948;2024-02-21T08:05:17;8.10;;;3.00;;
59872;SDS011;50750;51.636;4.948;2024-02-21T08:07:45;6.20;;;3.00;;
59872;SDS011;50750;51.636;4.948;2024-02-21T08:10:12;5.20;;;2.90;;
59872;SDS011;50750;51.636;4.948;2024-02-21T08:12:40;5.50;;;2.60;;
59872;SDS011;50750;51.636;4.948;2024-02-21T08:15:09;4.80;;;2.80;;
59872;SDS011;50750;51.636;4.948;2024-02-21T08:17:38;4.90;;;2.70;;
59872;SDS011;50750;51.636;4.948;2024-02-21T08:20:07;4.70;;;2.50;;
59872;SDS011;50750;51.636;4.948;2024-02-21T08:22:37;5.30;;;3.20;;
59872;SDS011;50750;51.636;4.948;2024-02-21T08:25:06;5.10;;;2.70;;
59872;SDS011;50750;51.636;4.948;2024-02-21T08:27:35;4.90;;;2.50;;
59872;SDS011;50750;51.636;4.948;2024-02-21T08:30:06;5.40;;;2.70;;
59872;SDS011;50750;51.636;4.948;2024-02-21T08:32:35;4.80;;;3.10;;
59872;SDS011;50750;51.636;4.948;2024-02-21T08:35:03;5.30;;;2.80;;
59872;SDS011;50750;51.636;4.948;2024-02-21T08:37:32;5.60;;;2.80;;
59872;SDS011;50750;51.636;4.948;2024-02-21T08:40:00;5.10;;;2.80;;
59872;SDS011;50750;51.636;4.948;2024-02-21T08:42:35;5.70;;;3.20;;
59872;SDS011;50750;51.636;4.948;2024-02-21T08:45:03;5.40;;;2.70;;
59872;SDS011;50750;51.636;4.948;2024-02-21T08:49:59;6.00;;;2.80;;
59872;SDS011;50750;51.636;4.948;2024-02-21T08:52:27;5.60;;;3.30;;
59872;SDS011;50750;51.636;4.948;2024-02-21T08:54:54;6.30;;;2.80;;
59872;SDS011;50750;51.636;4.948;2024-02-21T08:57:22;6.30;;;3.00;;
59872;SDS011;50750;51.636;4.948;2024-02-21T08:59:50;5.80;;;2.70;;
59872;SDS011;50750;51.636;4.948;2024-02-21T09:02:17;7.30;;;3.20;;
59872;SDS011;50750;51.636;4.948;2024-02-21T09:04:45;5.40;;;3.00;;
59872;SDS011;50750;51.636;4.948;2024-02-21T09:07:13;8.20;;;3.00;;
59872;SDS011;50750;51.636;4.948;2024-02-21T09:09:40;5.30;;;2.90;;
59872;SDS011;50750;51.636;4.948;2024-02-21T09:12:08;4.70;;;2.60;;
59872;SDS011;50750;51.636;4.948;2024-02-21T09:14:36;5.00;;;2.60;;
59872;SDS011;50750;51.636;4.948;2024-02-21T09:17:05;5.40;;;2.80;;
59872;SDS011;50750;51.636;4.948;2024-02-21T09:19:33;5.30;;;2.70;;
59872;SDS011;50750;51.636;4.948;2024-02-21T09:22:01;5.30;;;3.00;;
59872;SDS011;50750;51.636;4.948;2024-02-21T09:24:29;5.50;;;2.80;;
59872;SDS011;50750;51.636;4.948;2024-02-21T09:26:57;5.80;;;2.40;;
59872;SDS011;50750;51.636;4.948;2024-02-21T09:29:26;4.20;;;2.60;;
59872;SDS011;50750;51.636;4.948;2024-02-21T09:31:54;5.70;;;2.40;;
59872;SDS011;50750;51.636;4.948;2024-02-21T09:34:21;4.10;;;2.50;;
59872;SDS011;50750;51.636;4.948;2024-02-21T09:36:49;5.30;;;2.70;;
59872;SDS011;50750;51.636;4.948;2024-02-21T09:39:16;4.20;;;2.70;;
59872;SDS011;50750;51.636;4.948;2024-02-21T09:41:48;4.20;;;2.70;;
59872;SDS011;50750;51.636;4.948;2024-02-21T09:44:21;5.10;;;2.70;;
59872;SDS011;50750;51.636;4.948;2024-02-21T09:46:52;5.70;;;2.60;;
59872;SDS011;50750;51.636;4.948;2024-02-21T09:49:29;5.00;;;2.90;;
59872;SDS011;50750;51.636;4.948;2024-02-21T09:51:58;6.40;;;2.80;;
59872;SDS011;50750;51.636;4.948;2024-02-21T09:54:29;4.60;;;2.50;;
59872;SDS011;50750;51.636;4.948;2024-02-21T09:56:57;5.40;;;2.20;;
59872;SDS011;50750;51.636;4.948;2024-02-21T09:59:25;5.10;;;2.60;;
59872;SDS011;50750;51.636;4.948;2024-02-21T10:01:54;5.10;;;2.70;;
59872;SDS011;50750;51.636;4.948;2024-02-21T10:04:23;5.40;;;2.50;;
59872;SDS011;50750;51.636;4.948;2024-02-21T10:06:50;4.80;;;2.50;;
59872;SDS011;50750;51.636;4.948;2024-02-21T10:09:23;3.60;;;2.40;;
59872;SDS011;50750;51.636;4.948;2024-02-21T10:11:54;3.90;;;2.50;;
59872;SDS011;50750;51.636;4.948;2024-02-21T10:14:22;4.30;;;2.50;;
59872;SDS011;50750;51.636;4.948;2024-02-21T10:16:56;5.00;;;3.10;;
59872;SDS011;50750;51.636;4.948;2024-02-21T10:19:24;5.40;;;3.40;;
59872;SDS011;50750;51.636;4.948;2024-02-21T10:22:02;5.00;;;2.80;;
59872;SDS011;50750;51.636;4.948;2024-02-21T10:24:31;4.20;;;2.50;;
59872;SDS011;50750;51.636;4.948;2024-02-21T10:26:59;4.50;;;2.50;;
59872;SDS011;50750;51.636;4.948;2024-02-21T10:29:29;4.10;;;2.70;;
59872;SDS011;50750;51.636;4.948;2024-02-21T10:32:04;5.00;;;2.30;;
59872;SDS011;50750;51.636;4.948;2024-02-21T10:34:33;4.10;;;2.60;;
59872;SDS011;50750;51.636;4.948;2024-02-21T10:37:02;3.80;;;2.10;;
59872;SDS011;50750;51.636;4.948;2024-02-21T10:39:31;4.50;;;2.60;;
59872;SDS011;50750;51.636;4.948;2024-02-21T10:42:00;3.80;;;2.70;;
59872;SDS011;50750;51.636;4.948;2024-02-21T10:44:30;3.50;;;2.30;;
59872;SDS011;50750;51.636;4.948;2024-02-21T10:47:00;5.00;;;2.60;;
59872;SDS011;50750;51.636;4.948;2024-02-21T10:49:34;6.50;;;3.00;;
59872;SDS011;50750;51.636;4.948;2024-02-21T10:52:09;5.80;;;2.90;;
59872;SDS011;50750;51.636;4.948;2024-02-21T10:54:44;4.60;;;2.50;;
59872;SDS011;50750;51.636;4.948;2024-02-21T10:57:17;4.20;;;2.50;;
59872;SDS011;50750;51.636;4.948;2024-02-21T10:59:45;3.70;;;2.00;;
59872;SDS011;50750;51.636;4.948;2024-02-21T11:02:15;3.80;;;2.30;;
59872;SDS011;50750;51.636;4.948;2024-02-21T11:04:43;4.40;;;2.60;;
59872;SDS011;50750;51.636;4.948;2024-02-21T11:07:12;5.50;;;2.50;;
59872;SDS011;50750;51.636;4.948;2024-02-21T11:09:50;4.40;;;2.70;;
59872;SDS011;50750;51.636;4.948;2024-02-21T11:12:20;4.40;;;2.90;;
59872;SDS011;50750;51.636;4.948;2024-02-21T11:14:48;4.10;;;2.80;;
59872;SDS011;50750;51.636;4.948;2024-02-21T11:17:16;5.90;;;3.00;;
59872;SDS011;50750;51.636;4.948;2024-02-21T11:19:45;6.60;;;2.90;;
59872;SDS011;50750;51.636;4.948;2024-02-21T11:22:16;4.70;;;2.50;;
59872;SDS011;50750;51.636;4.948;2024-02-21T11:24:45;4.10;;;2.80;;
59872;SDS011;50750;51.636;4.948;2024-02-21T11:27:13;4.10;;;2.50;;
59872;SDS011;50750;51.636;4.948;2024-02-21T11:29:43;5.40;;;2.60;;
59872;SDS011;50750;51.636;4.948;2024-02-21T11:32:11;6.30;;;2.60;;
59872;SDS011;50750;51.636;4.948;2024-02-21T11:34:41;4.30;;;2.40;;
59872;SDS011;50750;51.636;4.948;2024-02-21T11:37:19;6.20;;;2.50;;
59872;SDS011;50750;51.636;4.948;2024-02-21T11:39:46;4.30;;;2.10;;
59872;SDS011;50750;51.636;4.948;2024-02-21T11:42:15;5.10;;;2.60;;
59872;SDS011;50750;51.636;4.948;2024-02-21T11:44:43;4.30;;;2.50;;
59872;SDS011;50750;51.636;4.948;2024-02-21T11:47:10;4.40;;;2.60;;
59872;SDS011;50750;51.636;4.948;2024-02-21T11:49:38;4.30;;;2.40;;
59872;SDS011;50750;51.636;4.948;2024-02-21T11:52:09;4.30;;;2.40;;
59872;SDS011;50750;51.636;4.948;2024-02-21T11:54:37;5.70;;;2.50;;
59872;SDS011;50750;51.636;4.948;2024-02-21T11:57:05;3.40;;;2.00;;
59872;SDS011;50750;51.636;4.948;2024-02-21T11:59:32;4.70;;;2.10;;
59872;SDS011;50750;51.636;4.948;2024-02-21T12:02:00;3.90;;;2.30;;
59872;SDS011;50750;51.636;4.948;2024-02-21T12:04:29;4.90;;;2.10;;
59872;SDS011;50750;51.636;4.948;2024-02-21T12:06:57;4.00;;;2.00;;
59872;SDS011;50750;51.636;4.948;2024-02-21T12:09:25;4.50;;;2.50;;
59872;SDS011;50750;51.636;4.948;2024-02-21T12:11:59;4.70;;;2.40;;
59872;SDS011;50750;51.636;4.948;2024-02-21T12:14:29;4.80;;;2.30;;
59872;SDS011;50750;51.636;4.948;2024-02-21T12:16:58;5.10;;;2.50;;
59872;SDS011;50750;51.636;4.948;2024-02-21T12:19:28;4.70;;;2.40;;
59872;SDS011;50750;51.636;4.948;2024-02-21T12:21:56;5.90;;;2.50;;
59872;SDS011;50750;51.636;4.948;2024-02-21T12:26:54;6.20;;;2.20;;
59872;SDS011;50750;51.636;4.948;2024-02-21T12:29:23;3.90;;;2.10;;
59872;SDS011;50750;51.636;4.948;2024-02-21T12:31:51;4.90;;;2.40;;
59872;SDS011;50750;51.636;4.948;2024-02-21T12:34:20;4.10;;;1.90;;
59872;SDS011;50750;51.636;4.948;2024-02-21T12:36:48;3.60;;;2.00;;
59872;SDS011;50750;51.636;4.948;2024-02-21T12:39:16;4.40;;;2.10;;
59872;SDS011;50750;51.636;4.948;2024-02-21T12:41:43;4.60;;;2.20;;
59872;SDS011;50750;51.636;4.948;2024-02-21T12:44:11;4.40;;;1.90;;
59872;SDS011;50750;51.636;4.948;2024-02-21T12:46:39;4.10;;;2.30;;
59872;SDS011;50750;51.636;4.948;2024-02-21T12:49:07;6.10;;;2.30;;
59872;SDS011;50750;51.636;4.948;2024-02-21T12:51:35;7.20;;;2.90;;
59872;SDS011;50750;51.636;4.948;2024-02-21T12:54:04;4.60;;;2.30;;
59872;SDS011;50750;51.636;4.948;2024-02-21T12:56:32;6.00;;;2.00;;
59872;SDS011;50750;51.636;4.948;2024-02-21T12:58:59;5.30;;;2.40;;
59872;SDS011;50750;51.636;4.948;2024-02-21T13:01:27;3.70;;;1.80;;
59872;SDS011;50750;51.636;4.948;2024-02-21T13:03:55;3.90;;;1.90;;
59872;SDS011;50750;51.636;4.948;2024-02-21T13:06:24;6.30;;;2.60;;
59872;SDS011;50750;51.636;4.948;2024-02-21T13:08:52;3.80;;;2.00;;
59872;SDS011;50750;51.636;4.948;2024-02-21T13:11:20;6.70;;;2.10;;
59872;SDS011;50750;51.636;4.948;2024-02-21T13:13:48;5.90;;;2.40;;
59872;SDS011;50750;51.636;4.948;2024-02-21T13:16:15;4.70;;;1.90;;
59872;SDS011;50750;51.636;4.948;2024-02-21T13:18:43;4.90;;;2.20;;
59872;SDS011;50750;51.636;4.948;2024-02-21T13:21:13;9.10;;;2.50;;
59872;SDS011;50750;51.636;4.948;2024-02-21T13:23:41;5.30;;;2.20;;
59872;SDS011;50750;51.636;4.948;2024-02-21T13:26:10;3.20;;;2.00;;
59872;SDS011;50750;51.636;4.948;2024-02-21T13:28:38;3.90;;;2.00;;
59872;SDS011;50750;51.636;4.948;2024-02-21T13:31:06;3.40;;;1.70;;
59872;SDS011;50750;51.636;4.948;2024-02-21T13:33:34;4.40;;;1.90;;
59872;SDS011;50750;51.636;4.948;2024-02-21T13:36:03;3.30;;;1.90;;
59872;SDS011;50750;51.636;4.948;2024-02-21T13:38:32;4.80;;;2.20;;
59872;SDS011;50750;51.636;4.948;2024-02-21T13:40:59;3.50;;;2.00;;
59872;SDS011;50750;51.636;4.948;2024-02-21T13:43:27;4.90;;;2.10;;
59872;SDS011;50750;51.636;4.948;2024-02-21T13:45:56;6.00;;;2.20;;
59872;SDS011;50750;51.636;4.948;2024-02-21T13:48:25;4.80;;;2.30;;
59872;SDS011;50750;51.636;4.948;2024-02-21T13:50:53;7.30;;;2.50;;
59872;SDS011;50750;51.636;4.948;2024-02-21T13:53:21;6.60;;;2.70;;
59872;SDS011;50750;51.636;4.948;2024-02-21T13:55:49;4.70;;;2.20;;
59872;SDS011;50750;51.636;4.948;2024-02-21T13:58:17;4.00;;;2.10;;
59872;SDS011;50750;51.636;4.948;2024-02-21T14:00:44;4.20;;;2.20;;
59872;SDS011;50750;51.636;4.948;2024-02-21T14:03:12;5.10;;;2.30;;
59872;SDS011;50750;51.636;4.948;2024-02-21T14:05:40;3.50;;;1.90;;
59872;SDS011;50750;51.636;4.948;2024-02-21T14:08:08;8.30;;;2.80;;
59872;SDS011;50750;51.636;4.948;2024-02-21T14:10:35;5.70;;;2.50;;
59872;SDS011;50750;51.636;4.948;2024-02-21T14:13:04;6.10;;;2.70;;
59872;SDS011;50750;51.636;4.948;2024-02-21T14:15:31;5.90;;;2.30;;
59872;SDS011;50750;51.636;4.948;2024-02-21T14:17:59;5.20;;;2.40;;
59872;SDS011;50750;51.636;4.948;2024-02-21T14:20:26;4.70;;;2.30;;
59872;SDS011;50750;51.636;4.948;2024-02-21T14:22:54;6.80;;;3.00;;
59872;SDS011;50750;51.636;4.948;2024-02-21T14:25:22;4.00;;;2.20;;
59872;SDS011;50750;51.636;4.948;2024-02-21T14:27:50;3.80;;;2.20;;
59872;SDS011;50750;51.636;4.948;2024-02-21T14:30:18;4.10;;;2.10;;
59872;SDS011;50750;51.636;4.948;2024-02-21T14:32:45;4.40;;;2.20;;
59872;SDS011;50750;51.636;4.948;2024-02-21T14:35:13;3.70;;;2.20;;
59872;SDS011;50750;51.636;4.948;2024-02-21T14:37:41;3.80;;;1.90;;
59872;SDS011;50750;51.636;4.948;2024-02-21T14:40:10;5.30;;;2.30;;
59872;SDS011;50750;51.636;4.948;2024-02-21T14:45:07;3.90;;;2.30;;
59872;SDS011;50750;51.636;4.948;2024-02-21T14:47:36;4.70;;;2.30;;
59872;SDS011;50750;51.636;4.948;2024-02-21T14:50:04;4.40;;;2.20;;
59872;SDS011;50750;51.636;4.948;2024-02-21T14:52:33;5.30;;;2.10;;
59872;SDS011;50750;51.636;4.948;2024-02-21T14:55:02;3.90;;;2.20;;
59872;SDS011;50750;51.636;4.948;2024-02-21T14:57:31;4.90;;;2.00;;
59872;SDS011;50750;51.636;4.948;2024-02-21T14:59:58;5.40;;;2.30;;
59872;SDS011;50750;51.636;4.948;2024-02-21T15:02:26;6.50;;;2.50;;
59872;SDS011;50750;51.636;4.948;2024-02-21T15:04:54;4.70;;;2.30;;
59872;SDS011;50750;51.636;4.948;2024-02-21T15:07:21;4.00;;;2.00;;
59872;SDS011;50750;51.636;4.948;2024-02-21T15:09:51;3.70;;;1.90;;
59872;SDS011;50750;51.636;4.948;2024-02-21T15:12:19;4.50;;;2.10;;